Terminal Aerodrome Forecast
Issued by NWS Wilmington, OH

Current Version | Previous Version | Text Only | Print | Product List | Glossary Off
Versions: 1 2 3 4 5 6 7 8 9 10 11 12 13 14 15 16 17 18 19 20 21 22 23

000
FTUS41 KILN 292025 AAA
TAFDAY
TAF AMD
KDAY 292025Z 2920/3018 36010KT P6SM SCT025 BKN045
     FM292300 04006KT P6SM OVC050
     FM300600 06006KT P6SM BKN100
     FM301400 11009KT 4SM -SHRA BR OVC025=

USA.gov is the U.S. government's official web portal to all federal, state and local government web resources and services.